createdAt,value
2018-12-01T00:00:38.595Z,6.50
2018-12-01T00:05:41.486Z,6.50
2018-12-01T00:10:44.517Z,6.50
2018-12-01T00:15:47.430Z,6.50
2018-12-01T00:20:50.416Z,6.50
2018-12-01T00:25:53.440Z,6.50
2018-12-01T00:30:56.393Z,6.50
2018-12-01T00:35:59.533Z,6.50
2018-12-01T00:41:02.460Z,6.50
2018-12-01T00:46:05.566Z,6.50
2018-12-01T00:51:08.537Z,6.40
2018-12-01T00:56:11.484Z,6.40
2018-12-01T01:01:14.552Z,6.40
2018-12-01T01:06:17.533Z,6.40
2018-12-01T01:11:20.574Z,6.30
2018-12-01T01:16:23.572Z,6.30
2018-12-01T01:21:26.550Z,6.30
2018-12-01T01:26:29.548Z,6.30
2018-12-01T01:31:32.454Z,6.20
2018-12-01T01:36:35.417Z,6.20
2018-12-01T01:41:38.347Z,6.20
2018-12-01T01:46:41.304Z,6.20
2018-12-01T01:51:44.305Z,6.10
2018-12-01T01:56:47.383Z,6.10
2018-12-01T02:01:50.399Z,6.10
2018-12-01T02:06:53.384Z,6.00
2018-12-01T02:11:56.351Z,6.00
2018-12-01T02:16:59.295Z,6.00
2018-12-01T02:22:02.321Z,6.00
2018-12-01T02:27:05.586Z,5.90
2018-12-01T02:32:08.616Z,5.90
2018-12-01T02:37:11.562Z,5.90
2018-12-01T02:42:14.531Z,5.90
2018-12-01T02:47:17.501Z,5.80
2018-12-01T02:52:20.502Z,5.70
2018-12-01T02:57:23.502Z,5.60
2018-12-01T03:02:26.450Z,5.60
2018-12-01T03:07:29.429Z,5.60
2018-12-01T03:12:32.355Z,5.60
2018-12-01T03:17:35.315Z,5.50
2018-12-01T03:22:38.322Z,5.40
2018-12-01T03:27:41.332Z,5.30
2018-12-01T03:32:44.282Z,5.20
2018-12-01T03:37:48.244Z,5.10
2018-12-01T03:42:52.221Z,5.10
2018-12-01T03:47:55.153Z,5.00
2018-12-01T03:52:58.109Z,5.00
2018-12-01T03:58:01.961Z,5.00
2018-12-01T04:03:06.288Z,5.00
2018-12-01T04:08:09.251Z,4.80
2018-12-01T04:13:12.386Z,4.90
2018-12-01T04:18:15.270Z,4.90
2018-12-01T04:23:18.173Z,4.90
2018-12-01T04:28:21.193Z,4.90
2018-12-01T04:33:24.133Z,4.80
2018-12-01T04:38:27.105Z,4.80
2018-12-01T04:43:30.102Z,4.80
2018-12-01T04:48:33.086Z,4.80
2018-12-01T04:53:36.031Z,4.80
2018-12-01T04:58:38.994Z,4.70
2018-12-01T05:03:41.885Z,4.70
2018-12-01T05:08:44.813Z,4.80
2018-12-01T05:13:47.786Z,4.80
2018-12-01T05:18:50.702Z,4.70
2018-12-01T05:23:53.954Z,4.70
2018-12-01T05:28:56.894Z,4.80
2018-12-01T05:33:59.861Z,4.70
2018-12-01T05:39:03.759Z,4.70
2018-12-01T05:44:06.790Z,4.80
2018-12-01T05:49:09.861Z,4.70
2018-12-01T05:54:12.938Z,4.70
2018-12-01T05:59:15.949Z,4.70
2018-12-01T06:04:18.905Z,4.70
2018-12-01T06:09:21.895Z,4.60
2018-12-01T06:14:24.859Z,4.60
2018-12-01T06:19:27.956Z,4.60
2018-12-01T06:24:30.929Z,4.60
2018-12-01T06:29:33.946Z,4.50
2018-12-01T06:34:36.876Z,4.50
2018-12-01T06:39:39.867Z,4.50
2018-12-01T06:44:42.898Z,4.50
2018-12-01T06:49:45.891Z,4.50
2018-12-01T06:54:48.865Z,4.60
2018-12-01T06:59:51.794Z,4.60
2018-12-01T07:04:54.757Z,4.60
2018-12-01T07:09:57.718Z,4.70
2018-12-01T07:15:00.679Z,4.60
2018-12-01T07:20:04.356Z,4.70
2018-12-01T07:25:07.660Z,4.70
2018-12-01T07:30:12.741Z,4.60
2018-12-01T07:35:15.975Z,4.60
2018-12-01T07:40:18.974Z,4.70
2018-12-01T07:45:21.978Z,4.70
2018-12-01T07:50:24.898Z,4.80
2018-12-01T07:55:27.890Z,4.90
2018-12-01T08:00:30.892Z,5.00
2018-12-01T08:05:33.909Z,5.10
2018-12-01T08:10:36.902Z,5.20
2018-12-01T08:15:39.858Z,5.20
2018-12-01T08:20:42.877Z,5.20
2018-12-01T08:25:45.878Z,5.30
2018-12-01T08:30:49.714Z,5.40
2018-12-01T08:35:52.717Z,5.60
2018-12-01T08:40:56.054Z,5.70
2018-12-01T08:45:59.073Z,6.00
2018-12-01T08:51:02.042Z,6.20
2018-12-01T08:56:05.259Z,6.30
2018-12-01T09:01:08.284Z,6.40
2018-12-01T09:06:11.340Z,6.50
2018-12-01T09:11:14.346Z,6.50
2018-12-01T09:16:17.327Z,6.60
2018-12-01T09:21:20.269Z,6.60
2018-12-01T09:26:23.222Z,6.70
2018-12-01T09:31:26.236Z,6.80
2018-12-01T09:36:29.208Z,7.00
2018-12-01T09:41:32.196Z,7.10
2018-12-01T09:46:35.302Z,7.20
2018-12-01T09:51:38.307Z,7.30
2018-12-01T09:56:41.309Z,7.30
2018-12-01T10:01:44.421Z,7.40
2018-12-01T10:06:47.450Z,8.20
2018-12-01T10:11:50.641Z,8.40
2018-12-01T10:16:53.428Z,8.40
2018-12-01T10:21:56.471Z,8.60
2018-12-01T10:26:59.515Z,8.70
2018-12-01T10:32:02.566Z,9.00
2018-12-01T10:37:06.045Z,9.10
2018-12-01T10:42:08.982Z,9.00
2018-12-01T10:47:12.114Z,9.20
2018-12-01T10:52:15.113Z,9.40
2018-12-01T10:57:18.214Z,9.20
2018-12-01T11:02:26.923Z,9.20
2018-12-01T11:07:29.902Z,9.00
2018-12-01T11:12:32.881Z,8.80
2018-12-01T11:17:35.897Z,8.80
2018-12-01T11:22:39.075Z,9.00
2018-12-01T11:27:42.243Z,9.40
2018-12-01T11:32:45.875Z,10.10
2018-12-01T11:37:48.909Z,10.40
2018-12-01T11:42:51.947Z,10.20
2018-12-01T11:47:55.124Z,10.10
2018-12-01T11:52:58.133Z,10.10
2018-12-01T11:58:01.172Z,9.80
2018-12-01T12:03:04.568Z,9.70
2018-12-01T12:08:25.713Z,9.60
2018-12-01T12:13:29.110Z,9.60
2018-12-01T12:18:32.536Z,9.70
2018-12-01T12:23:35.905Z,9.70
2018-12-01T12:28:39.300Z,10.10
2018-12-01T12:33:42.717Z,10.10
2018-12-01T12:38:45.601Z,10.00
2018-12-01T12:43:48.544Z,9.90
2018-12-01T12:48:51.593Z,9.90
2018-12-01T12:53:54.890Z,9.90
2018-12-01T12:58:57.934Z,10.00
2018-12-01T13:04:00.968Z,10.20
2018-12-01T13:09:07.425Z,10.40
2018-12-01T13:14:10.474Z,10.30
2018-12-01T13:19:13.500Z,10.20
2018-12-01T13:24:16.494Z,10.20
2018-12-01T13:29:19.651Z,10.20
2018-12-01T13:34:22.737Z,10.20
2018-12-01T13:39:25.811Z,10.20
2018-12-01T13:44:28.962Z,10.30
2018-12-01T13:49:32.130Z,10.30
2018-12-01T13:54:35.234Z,10.30
2018-12-01T13:59:38.226Z,10.30
2018-12-01T14:04:41.221Z,10.30
2018-12-01T14:09:44.195Z,10.30
2018-12-01T14:14:47.155Z,10.20
2018-12-01T14:19:50.199Z,10.10
2018-12-01T14:24:53.337Z,10.00
2018-12-01T14:29:56.256Z,9.90
2018-12-01T14:34:59.458Z,9.80
2018-12-01T14:40:02.779Z,9.80
2018-12-01T14:45:09.089Z,9.80
2018-12-01T14:50:14.751Z,9.70
2018-12-01T14:55:18.139Z,9.60
2018-12-01T15:00:24.731Z,9.40
2018-12-01T15:05:27.759Z,9.40
2018-12-01T15:10:30.745Z,9.20
2018-12-01T15:15:33.850Z,9.30
2018-12-01T15:20:36.948Z,9.20
2018-12-01T15:25:39.991Z,9.10
2018-12-01T15:30:43.084Z,9.10
2018-12-01T15:35:46.787Z,9.10
2018-12-01T15:40:51.127Z,9.00
2018-12-01T15:45:54.129Z,9.00
2018-12-01T15:50:57.258Z,9.00
2018-12-01T15:56:00.295Z,9.00
2018-12-01T16:01:03.389Z,8.90
2018-12-01T16:06:06.639Z,8.90
2018-12-01T16:11:09.830Z,8.80
2018-12-01T16:16:12.908Z,8.80
2018-12-01T16:21:16.195Z,8.80
2018-12-01T16:26:19.275Z,8.80
2018-12-01T16:31:22.353Z,8.80
2018-12-01T16:36:25.318Z,8.70
2018-12-01T16:41:32.730Z,8.60
2018-12-01T16:46:35.750Z,8.50
2018-12-01T16:51:38.887Z,8.50
2018-12-01T16:56:42.019Z,8.40
2018-12-01T17:01:45.033Z,8.40
2018-12-01T17:06:48.020Z,8.50
2018-12-01T17:11:51.088Z,8.50
2018-12-01T17:16:54.537Z,8.50
2018-12-01T17:21:57.588Z,8.50
2018-12-01T17:27:00.618Z,8.70
2018-12-01T17:32:03.770Z,8.70
2018-12-01T17:37:06.794Z,8.70
2018-12-01T17:42:12.824Z,8.60
2018-12-01T17:47:15.901Z,8.60
2018-12-01T17:52:19.036Z,8.50
2018-12-01T17:57:22.094Z,8.40
2018-12-01T18:02:25.150Z,8.20
2018-12-01T18:07:28.145Z,8.30
2018-12-01T18:12:31.238Z,8.30
2018-12-01T18:17:34.227Z,8.10
2018-12-01T18:22:37.286Z,8.10
2018-12-01T18:27:40.384Z,8.10
2018-12-01T18:32:43.695Z,8.10
2018-12-01T18:37:46.690Z,8.00
2018-12-01T18:42:50.439Z,8.10
2018-12-01T18:47:53.427Z,8.10
2018-12-01T18:52:58.454Z,8.10
2018-12-01T18:58:01.552Z,8.20
2018-12-01T19:03:05.264Z,8.20
2018-12-01T19:08:08.270Z,8.20
2018-12-01T19:13:11.327Z,8.20
2018-12-01T19:18:14.312Z,8.20
2018-12-01T19:23:18.390Z,8.20
2018-12-01T19:28:21.467Z,8.20
2018-12-01T19:33:24.950Z,8.20
2018-12-01T19:38:29.381Z,8.20
2018-12-01T19:43:32.344Z,8.20
2018-12-01T19:48:35.443Z,8.20
2018-12-01T19:53:38.473Z,8.30
2018-12-01T19:58:41.427Z,8.20
2018-12-01T20:03:44.504Z,8.20
2018-12-01T20:08:47.567Z,8.10
2018-12-01T20:13:50.561Z,8.10
2018-12-01T20:18:54.186Z,8.20
2018-12-01T20:23:57.252Z,8.30
2018-12-01T20:29:00.212Z,8.20
2018-12-01T20:34:03.657Z,8.30
2018-12-01T20:39:31.921Z,8.20
2018-12-01T20:44:35.008Z,8.20
2018-12-01T20:49:38.123Z,8.30
2018-12-01T20:54:44.795Z,8.30
2018-12-01T20:59:47.834Z,8.30
2018-12-01T21:04:50.956Z,8.30
2018-12-01T21:09:53.919Z,8.40
2018-12-01T21:14:57.117Z,8.40
2018-12-01T21:20:00.171Z,8.30
2018-12-01T21:25:03.351Z,8.40
2018-12-01T21:30:12.815Z,8.40
2018-12-01T21:35:15.926Z,8.40
2018-12-01T21:40:19.679Z,8.40
2018-12-01T21:45:22.862Z,8.40
2018-12-01T21:50:25.903Z,8.50
2018-12-01T21:55:28.970Z,8.40
2018-12-01T22:00:32.583Z,8.50
2018-12-01T22:05:41.296Z,8.50
2018-12-01T22:10:47.383Z,8.50
2018-12-01T22:15:50.405Z,8.50
2018-12-01T22:20:53.702Z,8.60
2018-12-01T22:25:56.619Z,8.60
2018-12-01T22:30:59.729Z,8.60
2018-12-01T22:36:03.163Z,8.60
2018-12-01T22:41:06.382Z,8.60
2018-12-01T22:46:09.412Z,8.60
2018-12-01T22:51:12.425Z,8.60
2018-12-01T22:56:15.418Z,8.60
2018-12-01T23:01:18.556Z,8.60
2018-12-01T23:06:21.539Z,8.60
2018-12-01T23:11:24.616Z,8.60
2018-12-01T23:16:27.617Z,8.50
2018-12-01T23:21:30.751Z,8.40
2018-12-01T23:26:33.733Z,8.40
2018-12-01T23:31:36.794Z,8.40
2018-12-01T23:36:39.791Z,8.40
2018-12-01T23:41:42.770Z,8.40
2018-12-01T23:46:45.741Z,8.50
2018-12-01T23:51:48.730Z,8.50
2018-12-01T23:56:51.738Z,8.50
